createdAt,value
2023-02-10T00:00:18.519Z,40.67
2023-02-10T00:02:45.755Z,42.38
2023-02-10T00:05:13.070Z,43.63
2023-02-10T00:07:40.199Z,43.72
2023-02-10T00:10:07.603Z,44.83
2023-02-10T00:12:37.391Z,43.47
2023-02-10T00:15:04.900Z,52.50
2023-02-10T00:17:31.987Z,50.30
2023-02-10T00:19:59.793Z,48.70
2023-02-10T00:22:26.930Z,50.95
2023-02-10T00:24:54.114Z,48.70
2023-02-10T00:27:24.939Z,45.60
2023-02-10T00:29:52.375Z,41.10
2023-02-10T00:32:19.647Z,39.22
2023-02-10T00:34:47.247Z,40.53
2023-02-10T00:37:14.731Z,44.20
2023-02-10T00:39:41.875Z,45.00
2023-02-10T00:42:09.001Z,42.33
2023-02-10T00:44:36.095Z,44.13
2023-02-10T00:47:03.258Z,41.70
2023-02-10T00:49:30.376Z,37.75
2023-02-10T00:51:58.407Z,40.20
2023-02-10T00:54:25.508Z,45.13
2023-02-10T00:56:52.712Z,47.63
2023-02-10T00:59:21.038Z,50.00
2023-02-10T01:01:48.171Z,51.77
2023-02-10T01:04:15.359Z,45.72
2023-02-10T01:06:42.740Z,44.13
2023-02-10T01:09:10.038Z,41.73
2023-02-10T01:11:37.136Z,42.38
2023-02-10T01:14:04.582Z,41.92
2023-02-10T01:16:31.842Z,44.90
2023-02-10T01:19:01.079Z,40.78
2023-02-10T01:21:27.928Z,44.38
2023-02-10T01:23:55.044Z,38.90
2023-02-10T01:26:22.268Z,45.30
2023-02-10T01:28:49.406Z,41.85
2023-02-10T01:31:17.795Z,45.10
2023-02-10T01:33:45.126Z,42.70
2023-02-10T01:36:14.840Z,43.67
2023-02-10T01:38:42.679Z,50.80
2023-02-10T01:41:09.930Z,45.40
2023-02-10T01:43:56.973Z,47.20
2023-02-10T01:46:24.496Z,47.17
2023-02-10T01:48:52.312Z,43.97
2023-02-10T01:51:21.010Z,48.80
2023-02-10T01:53:48.130Z,45.60
2023-02-10T01:56:16.462Z,44.55
2023-02-10T01:58:43.857Z,44.88
2023-02-10T02:01:10.985Z,43.13
2023-02-10T02:03:42.030Z,45.10
2023-02-10T02:06:09.559Z,41.78
2023-02-10T02:11:33.626Z,44.50
2023-02-10T02:14:05.493Z,43.95
2023-02-10T02:16:32.597Z,40.38
2023-02-10T02:19:15.230Z,37.70
2023-02-10T02:21:52.918Z,45.83
2023-02-10T02:24:23.519Z,49.10
2023-02-10T02:27:06.828Z,43.90
2023-02-10T02:29:53.838Z,41.17
2023-02-10T02:32:22.259Z,44.13
2023-02-10T02:34:51.483Z,45.42
2023-02-10T02:37:22.691Z,44.20
2023-02-10T02:39:52.426Z,45.60
2023-02-10T02:42:23.891Z,41.53
2023-02-10T02:44:54.226Z,39.92
2023-02-10T02:47:30.834Z,45.03
2023-02-10T02:50:17.884Z,43.65
2023-02-10T02:52:52.216Z,39.22
2023-02-10T02:55:24.860Z,42.30
2023-02-10T02:57:55.113Z,41.00
2023-02-10T03:00:28.119Z,39.50
2023-02-10T03:02:55.702Z,38.95
2023-02-10T03:05:24.837Z,40.38
2023-02-10T03:07:51.944Z,41.73
2023-02-10T03:10:19.078Z,48.58
2023-02-10T03:12:46.292Z,45.95
2023-02-10T03:15:13.414Z,45.88
2023-02-10T03:17:40.575Z,48.13
2023-02-10T03:20:08.059Z,48.22
2023-02-10T03:22:35.210Z,46.28
2023-02-10T03:25:02.297Z,43.63
2023-02-10T03:27:29.477Z,42.25
2023-02-10T03:29:56.176Z,44.72
2023-02-10T03:32:23.302Z,41.22
2023-02-10T03:34:50.400Z,47.85
2023-02-10T03:37:17.471Z,49.28
2023-02-10T03:39:44.654Z,44.83
2023-02-10T03:42:12.345Z,44.35
2023-02-10T03:44:39.528Z,42.47
2023-02-10T03:47:06.655Z,45.40
2023-02-10T03:49:33.783Z,41.35
2023-02-10T03:52:00.807Z,38.28
2023-02-10T03:54:28.736Z,44.10
2023-02-10T03:56:55.840Z,42.08
2023-02-10T03:59:22.975Z,41.97
2023-02-10T04:01:50.253Z,40.17
2023-02-10T04:04:17.433Z,40.53
2023-02-10T04:06:44.554Z,42.60
2023-02-10T04:09:11.654Z,45.45
2023-02-10T04:11:38.769Z,44.05
2023-02-10T04:14:05.864Z,42.85
2023-02-10T04:16:34.561Z,41.72
2023-02-10T04:19:01.548Z,41.63
2023-02-10T04:21:28.727Z,41.45
2023-02-10T04:23:56.760Z,42.13
2023-02-10T04:26:24.325Z,40.05
2023-02-10T04:28:51.551Z,44.63
2023-02-10T04:31:18.841Z,44.35
2023-02-10T04:33:45.988Z,41.40
2023-02-10T04:36:13.190Z,42.40
2023-02-10T04:38:40.331Z,41.70
2023-02-10T04:41:07.448Z,41.92
2023-02-10T04:43:35.131Z,44.13
2023-02-10T04:46:03.565Z,48.60
2023-02-10T04:48:30.658Z,49.90
2023-02-10T04:50:58.297Z,49.58
2023-02-10T04:53:25.430Z,47.05
2023-02-10T04:55:52.606Z,46.42
2023-02-10T04:58:19.980Z,44.80
2023-02-10T05:00:47.225Z,46.90
2023-02-10T05:03:14.640Z,45.07
2023-02-10T05:05:41.785Z,43.80
2023-02-10T05:08:08.875Z,44.85
2023-02-10T05:10:36.061Z,45.25
2023-02-10T05:13:02.771Z,46.25
2023-02-10T05:15:29.856Z,47.03
2023-02-10T05:17:56.963Z,45.00
2023-02-10T05:20:24.059Z,44.22
2023-02-10T05:22:51.154Z,43.40
2023-02-10T05:25:18.292Z,45.65
2023-02-10T05:27:45.474Z,48.70
2023-02-10T05:30:14.037Z,46.20
2023-02-10T05:32:41.833Z,40.03
2023-02-10T05:35:09.183Z,46.75
2023-02-10T05:37:36.405Z,46.15
2023-02-10T05:40:03.659Z,45.72
2023-02-10T05:42:30.704Z,47.00
2023-02-10T05:44:57.865Z,46.17
2023-02-10T05:47:25.029Z,52.92
2023-02-10T05:49:52.162Z,54.17
2023-02-10T05:52:19.248Z,56.67
2023-02-10T05:54:46.339Z,58.13
2023-02-10T05:57:13.408Z,56.78
2023-02-10T05:59:40.521Z,55.83
2023-02-10T06:02:07.645Z,52.60
2023-02-10T06:04:34.971Z,57.75
2023-02-10T06:07:02.076Z,52.70
2023-02-10T06:09:29.174Z,55.55
2023-02-10T06:11:56.373Z,58.83
2023-02-10T06:14:23.526Z,62.05
2023-02-10T06:16:50.710Z,54.08
2023-02-10T06:19:20.416Z,54.70
2023-02-10T06:21:47.809Z,53.35
2023-02-10T06:24:15.018Z,52.17
2023-02-10T06:26:42.103Z,51.50
2023-02-10T06:29:09.918Z,54.33
2023-02-10T06:31:37.092Z,53.65
2023-02-10T06:34:04.286Z,53.08
2023-02-10T06:36:31.332Z,57.15
2023-02-10T06:38:58.427Z,55.67
2023-02-10T06:41:25.586Z,52.20
2023-02-10T06:43:52.691Z,52.00
2023-02-10T06:46:19.799Z,50.85
2023-02-10T06:48:47.010Z,48.35
2023-02-10T06:51:14.574Z,46.13
2023-02-10T06:53:41.942Z,45.47
2023-02-10T06:56:09.058Z,45.00
2023-02-10T06:58:36.448Z,41.95
2023-02-10T07:01:08.322Z,43.90
2023-02-10T07:03:35.516Z,44.08
2023-02-10T07:06:02.740Z,46.88
2023-02-10T07:08:29.838Z,46.33
2023-02-10T07:10:56.947Z,48.17
2023-02-10T07:13:24.033Z,50.40
2023-02-10T07:15:51.463Z,45.88
2023-02-10T07:18:18.784Z,46.03
2023-02-10T07:20:45.917Z,44.88
2023-02-10T07:23:13.024Z,47.60
2023-02-10T07:25:40.140Z,48.90
2023-02-10T07:28:09.015Z,49.28
2023-02-10T07:30:36.127Z,47.53
2023-02-10T07:33:04.382Z,46.53
2023-02-10T07:35:31.433Z,44.80
2023-02-10T07:37:58.160Z,47.45
2023-02-10T07:40:29.607Z,44.63
2023-02-10T07:42:56.695Z,50.13
2023-02-10T07:45:24.498Z,47.40
2023-02-10T07:47:51.534Z,48.97
2023-02-10T07:50:18.646Z,47.87
2023-02-10T07:52:45.384Z,47.25
2023-02-10T07:55:12.655Z,49.17
2023-02-10T07:57:40.102Z,51.30
2023-02-10T08:00:08.496Z,49.67
2023-02-10T08:02:35.643Z,48.55
2023-02-10T08:05:02.829Z,46.33
2023-02-10T08:07:30.030Z,48.88
2023-02-10T08:09:57.124Z,47.15
2023-02-10T08:12:24.212Z,46.78
2023-02-10T08:14:51.276Z,48.03
2023-02-10T08:17:18.420Z,45.80
2023-02-10T08:19:45.460Z,48.45
2023-02-10T08:22:12.553Z,49.20
2023-02-10T08:24:39.651Z,44.97
2023-02-10T08:27:07.020Z,46.95
2023-02-10T08:29:34.160Z,46.17
2023-02-10T08:32:01.363Z,44.22
2023-02-10T08:34:28.671Z,48.80
2023-02-10T08:36:55.774Z,48.15
2023-02-10T08:39:22.955Z,45.65
2023-02-10T08:41:50.013Z,49.83
2023-02-10T08:44:17.228Z,49.05
2023-02-10T08:46:44.418Z,44.70
2023-02-10T08:49:11.652Z,45.75
2023-02-10T08:51:39.918Z,44.03
2023-02-10T08:54:07.938Z,43.92
2023-02-10T08:56:35.373Z,44.20
2023-02-10T08:59:02.477Z,41.05
2023-02-10T09:01:30.322Z,39.28
2023-02-10T09:03:57.566Z,42.25
2023-02-10T09:06:26.145Z,42.70
2023-02-10T09:08:53.789Z,46.40
2023-02-10T09:11:23.698Z,44.83
2023-02-10T09:13:52.055Z,44.80
2023-02-10T09:16:19.420Z,46.75
2023-02-10T09:18:46.669Z,46.67
2023-02-10T09:21:13.790Z,45.65
2023-02-10T09:23:40.910Z,43.85
2023-02-10T09:26:08.093Z,45.60
2023-02-10T09:28:35.506Z,41.40
2023-02-10T09:31:03.098Z,44.30
2023-02-10T09:33:30.414Z,42.47
2023-02-10T09:35:57.489Z,45.03
2023-02-10T09:38:25.759Z,44.40
2023-02-10T09:41:00.739Z,43.03
2023-02-10T09:43:47.374Z,38.25
2023-02-10T09:46:34.988Z,38.65
2023-02-10T09:49:02.178Z,39.28
2023-02-10T09:51:32.499Z,38.53
2023-02-10T09:54:00.167Z,39.10
2023-02-10T09:56:27.470Z,36.30
2023-02-10T09:58:56.092Z,36.13
2023-02-10T10:01:26.499Z,35.65
2023-02-10T10:03:57.581Z,36.27
2023-02-10T10:06:33.241Z,34.55
2023-02-10T10:09:03.953Z,34.53
2023-02-10T10:11:50.935Z,30.85
2023-02-10T10:14:29.063Z,29.05
2023-02-10T10:17:21.508Z,29.35
2023-02-10T10:20:04.292Z,29.33
2023-02-10T10:22:38.729Z,31.67
2023-02-10T10:25:12.859Z,28.33
2023-02-10T10:27:59.866Z,26.97
2023-02-10T10:30:34.575Z,28.02
2023-02-10T10:33:04.159Z,28.20
2023-02-10T10:35:34.378Z,27.87
2023-02-10T10:38:01.651Z,29.80
2023-02-10T10:40:32.169Z,25.35
2023-02-10T10:43:00.874Z,27.13
2023-02-10T10:45:31.260Z,26.75
2023-02-10T10:48:01.044Z,27.48
2023-02-10T10:50:28.426Z,26.38
2023-02-10T10:52:56.995Z,26.27
2023-02-10T10:55:25.104Z,29.85
2023-02-10T10:57:54.325Z,26.13
2023-02-10T11:00:26.692Z,28.77
2023-02-10T11:02:55.860Z,27.35
2023-02-10T11:05:23.596Z,28.45
2023-02-10T11:07:53.995Z,27.70
2023-02-10T11:10:40.984Z,28.77
2023-02-10T11:13:18.299Z,27.23
2023-02-10T11:15:45.687Z,26.83
2023-02-10T11:18:18.380Z,26.48
2023-02-10T11:20:53.888Z,27.00
2023-02-10T11:23:21.095Z,24.30
2023-02-10T11:25:49.001Z,25.27
2023-02-10T11:28:21.019Z,27.55
2023-02-10T11:30:49.739Z,26.80
2023-02-10T11:33:22.115Z,26.38
2023-02-10T11:35:50.701Z,27.83
2023-02-10T11:38:21.286Z,29.75
2023-02-10T11:40:53.470Z,27.23
2023-02-10T11:43:21.193Z,26.58
2023-02-10T11:45:57.942Z,27.38
2023-02-10T11:48:26.323Z,27.92
2023-02-10T11:51:13.336Z,25.67
2023-02-10T11:53:40.861Z,25.95
2023-02-10T11:56:16.339Z,24.52
2023-02-10T11:59:03.335Z,25.63
2023-02-10T12:01:39.274Z,23.00
2023-02-10T12:04:17.515Z,24.95
2023-02-10T12:06:45.668Z,26.98
2023-02-10T12:09:13.737Z,26.98
2023-02-10T12:11:44.185Z,26.60
2023-02-10T12:14:31.132Z,26.65
2023-02-10T12:17:18.122Z,25.17
2023-02-10T12:20:07.332Z,23.10
2023-02-10T12:22:35.435Z,26.88
2023-02-10T12:25:07.639Z,26.83
2023-02-10T12:27:35.773Z,28.75
2023-02-10T12:30:09.759Z,25.33
2023-02-10T12:32:37.877Z,26.42
2023-02-10T12:35:09.793Z,28.80
2023-02-10T12:37:53.500Z,30.08
2023-02-10T12:40:41.079Z,27.88
2023-02-10T12:43:28.106Z,28.93
2023-02-10T12:46:00.490Z,28.70
2023-02-10T12:48:34.986Z,27.23
2023-02-10T12:51:02.086Z,29.25
2023-02-10T12:53:32.901Z,27.10
2023-02-10T12:56:00.019Z,25.83
2023-02-10T12:58:30.820Z,25.45
2023-02-10T13:01:06.362Z,24.58
2023-02-10T13:03:35.835Z,23.55
2023-02-10T13:06:13.053Z,27.52
2023-02-10T13:08:43.399Z,27.98
2023-02-10T13:11:15.187Z,27.02
2023-02-10T13:13:44.743Z,24.83
2023-02-10T13:16:14.253Z,25.33
2023-02-10T13:18:49.083Z,26.40
2023-02-10T13:21:21.791Z,29.20
2023-02-10T13:24:08.815Z,24.83
2023-02-10T13:26:57.629Z,23.83
2023-02-10T13:29:44.637Z,28.02
2023-02-10T13:32:31.636Z,24.60
2023-02-10T13:35:00.556Z,25.23
2023-02-10T13:37:32.520Z,26.55
2023-02-10T13:40:00.869Z,26.75
2023-02-10T13:42:27.984Z,27.67
2023-02-10T13:45:10.493Z,27.20
2023-02-10T13:47:42.803Z,23.00
2023-02-10T13:50:30.039Z,23.73
2023-02-10T13:52:57.774Z,25.10
2023-02-10T13:55:28.111Z,28.50
2023-02-10T13:57:56.934Z,28.20
2023-02-10T14:00:25.785Z,23.15
2023-02-10T14:03:12.814Z,21.63
2023-02-10T14:05:51.826Z,24.08
2023-02-10T14:08:30.363Z,23.10
2023-02-10T14:10:58.773Z,25.63
2023-02-10T14:13:27.908Z,22.30
2023-02-10T14:15:56.967Z,24.85
2023-02-10T14:18:25.808Z,24.85
2023-02-10T14:20:57.869Z,25.80
2023-02-10T14:23:25.705Z,25.58
2023-02-10T14:26:01.422Z,23.70
2023-02-10T14:28:30.344Z,24.67
2023-02-10T14:31:01.020Z,24.70
2023-02-10T14:33:28.193Z,26.70
2023-02-10T14:35:56.988Z,26.63
2023-02-10T14:38:26.595Z,27.00
2023-02-10T14:40:54.442Z,27.67
2023-02-10T14:43:23.526Z,27.42
2023-02-10T14:45:50.908Z,32.20
2023-02-10T14:48:22.993Z,30.80
2023-02-10T14:50:58.581Z,30.42
2023-02-10T14:53:26.052Z,31.45
2023-02-10T14:55:55.256Z,34.80
2023-02-10T14:58:25.005Z,33.25
2023-02-10T15:01:12.086Z,28.60
2023-02-10T15:03:40.455Z,37.22
2023-02-10T15:06:07.839Z,30.15
2023-02-10T15:08:38.660Z,29.17
2023-02-10T15:11:07.844Z,28.67
2023-02-10T15:13:37.187Z,28.70
2023-02-10T15:16:06.151Z,30.48
2023-02-10T15:18:35.005Z,29.63
2023-02-10T15:21:04.044Z,29.52
2023-02-10T15:23:33.001Z,24.55
2023-02-10T15:26:02.379Z,28.92
2023-02-10T15:28:30.517Z,26.88
2023-02-10T15:31:07.076Z,23.65
2023-02-10T15:33:36.211Z,26.50
2023-02-10T15:36:03.318Z,24.80
2023-02-10T15:38:30.432Z,23.60
2023-02-10T15:40:58.454Z,23.75
2023-02-10T15:43:30.092Z,25.83
2023-02-10T15:46:17.166Z,24.42
2023-02-10T15:48:44.340Z,27.00
2023-02-10T15:51:19.787Z,26.88
2023-02-10T15:53:47.816Z,25.42
2023-02-10T15:56:14.955Z,29.90
2023-02-10T15:58:42.055Z,30.70
2023-02-10T16:01:09.821Z,29.92
2023-02-10T16:03:36.539Z,26.95
2023-02-10T16:06:03.640Z,31.77
2023-02-10T16:08:32.536Z,32.38
2023-02-10T16:11:02.781Z,30.58
2023-02-10T16:13:29.879Z,28.60
2023-02-10T16:15:57.093Z,27.83
2023-02-10T16:18:25.670Z,31.13
2023-02-10T16:20:52.833Z,31.67
2023-02-10T16:23:21.095Z,30.30
2023-02-10T16:25:50.739Z,28.85
2023-02-10T16:28:19.234Z,31.80
2023-02-10T16:30:47.790Z,30.70
2023-02-10T16:33:16.012Z,34.00
2023-02-10T16:35:43.589Z,36.25
2023-02-10T16:38:17.583Z,35.22
2023-02-10T16:40:45.248Z,33.05
2023-02-10T16:43:12.698Z,35.10
2023-02-10T16:45:39.836Z,31.23
2023-02-10T16:48:06.975Z,33.55
2023-02-10T16:50:36.337Z,31.42
2023-02-10T16:53:04.881Z,32.58
2023-02-10T16:55:32.378Z,34.03
2023-02-10T16:57:59.766Z,32.92
2023-02-10T17:00:27.059Z,32.70
2023-02-10T17:02:54.736Z,37.60
2023-02-10T17:05:22.446Z,40.83
2023-02-10T17:07:49.877Z,43.53
2023-02-10T17:10:26.902Z,46.25
2023-02-10T17:12:54.070Z,37.90
2023-02-10T17:15:21.274Z,44.33
2023-02-10T17:17:48.438Z,45.30
2023-02-10T17:20:20.419Z,42.03
2023-02-10T17:22:47.916Z,37.65
2023-02-10T17:25:15.106Z,34.97
2023-02-10T17:27:42.268Z,37.00
2023-02-10T17:30:09.530Z,41.28
2023-02-10T17:32:37.879Z,43.78
2023-02-10T17:35:05.078Z,41.95
2023-02-10T17:37:33.838Z,38.63
2023-02-10T17:40:07.951Z,39.63
2023-02-10T17:42:35.036Z,34.95
2023-02-10T17:45:02.179Z,40.10
2023-02-10T17:47:29.372Z,37.95
2023-02-10T17:49:56.442Z,37.38
2023-02-10T17:52:23.586Z,36.75
2023-02-10T17:54:50.642Z,39.70
2023-02-10T17:57:17.676Z,41.20
2023-02-10T17:59:44.822Z,40.33
2023-02-10T18:02:13.250Z,36.85
2023-02-10T18:04:43.984Z,38.03
2023-02-10T18:07:11.666Z,36.67
2023-02-10T18:09:38.766Z,36.80
2023-02-10T18:12:08.522Z,42.60
2023-02-10T18:14:35.594Z,39.15
2023-02-10T18:17:03.081Z,36.30
2023-02-10T18:19:30.338Z,36.78
2023-02-10T18:21:57.422Z,37.22
2023-02-10T18:24:24.624Z,36.75
2023-02-10T18:26:52.156Z,37.58
2023-02-10T18:29:19.281Z,40.03
2023-02-10T18:31:46.483Z,42.23
2023-02-10T18:34:13.680Z,38.17
2023-02-10T18:36:40.775Z,39.83
2023-02-10T18:39:08.213Z,41.55
2023-02-10T18:41:34.917Z,42.45
2023-02-10T18:44:02.079Z,39.65
2023-02-10T18:46:29.246Z,41.60
2023-02-10T18:48:56.430Z,39.17
2023-02-10T18:51:23.616Z,39.03
2023-02-10T18:53:52.357Z,42.20
2023-02-10T18:56:20.644Z,40.72
2023-02-10T18:58:47.825Z,42.22
2023-02-10T19:01:18.463Z,41.92
2023-02-10T19:03:45.965Z,44.03
2023-02-10T19:06:13.490Z,49.30
2023-02-10T19:08:40.701Z,53.47
2023-02-10T19:11:09.950Z,45.35
2023-02-10T19:13:37.484Z,46.38
2023-02-10T19:16:05.468Z,42.92
2023-02-10T19:18:32.697Z,47.38
2023-02-10T19:20:59.822Z,47.55
2023-02-10T19:23:27.359Z,47.38
2023-02-10T19:25:54.519Z,53.38
2023-02-10T19:28:21.784Z,54.92
2023-02-10T19:30:49.123Z,53.13
2023-02-10T19:33:16.248Z,47.65
2023-02-10T19:35:51.138Z,54.17
2023-02-10T19:38:18.857Z,51.30
2023-02-10T19:40:46.200Z,48.05
2023-02-10T19:43:13.286Z,45.22
2023-02-10T19:45:40.398Z,40.92
2023-02-10T19:48:07.581Z,48.42
2023-02-10T19:50:34.674Z,53.42
2023-02-10T19:53:01.405Z,54.33
2023-02-10T19:55:28.544Z,51.00
2023-02-10T19:57:56.277Z,46.10
2023-02-10T20:00:23.481Z,44.85
2023-02-10T20:02:50.592Z,42.65
2023-02-10T20:05:17.945Z,40.70
2023-02-10T20:07:45.065Z,45.05
2023-02-10T20:10:12.253Z,49.40
2023-02-10T20:12:39.519Z,51.07
2023-02-10T20:15:06.883Z,46.42
2023-02-10T20:17:34.433Z,44.22
2023-02-10T20:20:02.412Z,46.93
2023-02-10T20:22:29.520Z,47.78
2023-02-10T20:24:56.635Z,45.43
2023-02-10T20:27:25.786Z,49.93
2023-02-10T20:29:54.624Z,50.97
2023-02-10T20:32:21.797Z,48.95
2023-02-10T20:34:48.991Z,43.75
2023-02-10T20:37:16.103Z,41.30
2023-02-10T20:39:43.171Z,41.28
2023-02-10T20:42:10.256Z,40.63
2023-02-10T20:44:37.322Z,45.70
2023-02-10T20:47:04.528Z,43.38
2023-02-10T20:49:32.576Z,41.17
2023-02-10T20:51:59.290Z,38.25
2023-02-10T20:54:26.395Z,38.63
2023-02-10T20:56:53.514Z,39.45
2023-02-10T20:59:20.590Z,39.45
2023-02-10T21:01:50.929Z,40.05
2023-02-10T21:04:18.300Z,40.90
2023-02-10T21:06:45.469Z,38.05
2023-02-10T21:09:12.717Z,38.17
2023-02-10T21:11:39.883Z,39.72
2023-02-10T21:14:07.048Z,40.72
2023-02-10T21:16:35.402Z,42.13
2023-02-10T21:19:02.562Z,42.72
2023-02-10T21:21:29.942Z,42.92
2023-02-10T21:23:57.052Z,38.05
2023-02-10T21:26:24.221Z,41.25
2023-02-10T21:28:53.864Z,42.20
2023-02-10T21:31:23.476Z,39.40
2023-02-10T21:33:50.640Z,42.80
2023-02-10T21:36:20.846Z,44.03
2023-02-10T21:38:48.120Z,48.45
2023-02-10T21:41:35.143Z,51.92
2023-02-10T21:44:02.865Z,51.23
2023-02-10T21:46:30.055Z,51.08
2023-02-10T21:48:57.904Z,49.25
2023-02-10T21:51:25.003Z,62.45
2023-02-10T21:53:52.106Z,76.82
2023-02-10T21:56:19.241Z,70.47
2023-02-10T21:58:46.672Z,60.10
2023-02-10T22:01:14.932Z,52.25
2023-02-10T22:03:42.163Z,47.90
2023-02-10T22:06:10.380Z,43.90
2023-02-10T22:08:37.500Z,43.28
2023-02-10T22:11:07.686Z,44.23
2023-02-10T22:13:36.501Z,43.58
2023-02-10T22:16:04.060Z,41.63
2023-02-10T22:18:31.222Z,41.67
2023-02-10T22:21:04.454Z,41.03
2023-02-10T22:23:32.084Z,39.55
2023-02-10T22:25:59.226Z,43.78
2023-02-10T22:28:26.436Z,40.13
2023-02-10T22:30:53.676Z,41.53
2023-02-10T22:33:20.781Z,42.60
2023-02-10T22:35:48.206Z,44.15
2023-02-10T22:38:15.515Z,43.42
2023-02-10T22:40:43.724Z,39.63
2023-02-10T22:43:11.128Z,38.38
2023-02-10T22:45:38.703Z,38.40
2023-02-10T22:48:05.925Z,40.15
2023-02-10T22:50:33.094Z,45.63
2023-02-10T22:53:00.180Z,42.67
2023-02-10T22:55:27.248Z,35.10
2023-02-10T22:57:54.328Z,46.22
2023-02-10T23:00:22.936Z,43.80
2023-02-10T23:02:50.408Z,41.30
2023-02-10T23:05:17.801Z,38.17
2023-02-10T23:07:44.961Z,35.85
2023-02-10T23:10:12.202Z,42.40
2023-02-10T23:12:39.396Z,42.43
2023-02-10T23:15:06.809Z,41.05
2023-02-10T23:17:34.306Z,36.72
2023-02-10T23:20:02.589Z,37.13
2023-02-10T23:22:29.759Z,41.45
2023-02-10T23:24:56.978Z,41.35
2023-02-10T23:27:24.338Z,42.25
2023-02-10T23:29:51.550Z,36.23
2023-02-10T23:32:18.699Z,35.85
2023-02-10T23:34:45.933Z,34.90
2023-02-10T23:37:12.989Z,36.47
2023-02-10T23:39:40.085Z,37.15
2023-02-10T23:42:07.346Z,42.92
2023-02-10T23:44:34.587Z,40.85
2023-02-10T23:47:01.679Z,40.17
2023-02-10T23:49:28.806Z,39.50
2023-02-10T23:51:55.931Z,39.08
2023-02-10T23:54:23.063Z,34.90
2023-02-10T23:56:50.068Z,39.08
2023-02-10T23:59:17.148Z,33.38
